Acton, Canada
Current Conditions -  °F | °C
As of 3:00 AM on Sunday 26 Oct 2014 (Local Time) from CYKF Reporting Station
Clear Clear  
Wind Chill: 39°   Ceiling: Unl
Heat Index: 46°   Visibility: 9mi
Dew Point: 36°   Wind: 17mph
Humidity: 66%   Direction: 290°WNW
Pressure: 29.67"   Gusts: 24mph
Location:  43.63°N, 80.03°W
Report Text: CYKF 260700Z AUTO 29015G21KT 9SM CLR 08/02 A2967 RMK SLP048
Loading
Personal Weather Stations






























Interactive Weather Map
Tropical Storm Tracking
New forecast layout! Learn more

10-Day Weather Forecast

Advertisements
Track Severe Weather on mobile